Time;durP1;ratioP1;P1;durP2;ratioP2;P2;SDS_P1;SDS_P2;PMS_P1;PMS_P2;Temp;Humidity;BMP_temperature;BMP_pressure;BME280_temperature;BME280_humidity;BME280_pressure;Samples;Min_cycle;Max_cycle;Signal;HPM_P1;HPM_P2
2021/07/20 00:07:41;;;;;;;16.10;5.53;;;;;;;15.06;64.41;99487.66;513568;1089;115304;-56
2021/07/20 00:17:51;;;;;;;10.55;6.05;;;;;;;14.93;65.00;99479.09;513715;1089;116578;-56
2021/07/20 00:27:57;;;;;;;6.90;5.30;;;;;;;14.77;65.64;99479.54;514285;1090;116227;-54
2021/07/20 00:38:04;;;;;;;10.07;4.90;;;;;;;14.61;66.20;99490.55;516752;1089;116822;-55
2021/07/20 00:48:11;;;;;;;6.43;4.30;;;;;;;14.52;66.93;99484.19;521496;1089;117119;-57
2021/07/20 00:58:20;;;;;;;5.40;4.90;;;;;;;14.54;66.94;99487.54;514853;1090;116707;-56
2021/07/20 01:08:27;;;;;;;6.53;5.00;;;;;;;14.37;67.39;99473.93;513840;1089;116629;-56
2021/07/20 01:18:38;;;;;;;6.70;4.00;;;;;;;14.18;67.86;99464.03;514044;1088;116237;-56
2021/07/20 01:28:47;;;;;;;5.83;5.00;;;;;;;14.12;68.34;99464.52;513757;1089;116962;-56
2021/07/20 01:38:55;;;;;;;9.17;5.43;;;;;;;14.14;68.59;99460.80;514536;1089;116549;-57
2021/07/20 01:49:06;;;;;;;7.65;5.15;;;;;;;13.96;68.79;99447.30;513774;1090;116869;-55
2021/07/20 01:59:13;;;;;;;11.87;5.50;;;;;;;13.76;69.40;99445.41;514443;1090;115989;-55
2021/07/20 02:09:24;;;;;;;6.18;3.73;;;;;;;13.64;69.82;99447.23;513646;1089;116845;-57
2021/07/20 02:19:36;;;;;;;7.23;5.13;;;;;;;13.61;70.22;99450.95;515051;1089;116799;-55
2021/07/20 02:29:44;;;;;;;5.93;4.80;;;;;;;13.69;70.49;99460.89;514803;1088;116464;-55
2021/07/20 02:39:52;;;;;;;7.40;5.40;;;;;;;13.76;70.51;99469.16;514467;1089;116461;-56
2021/07/20 02:49:59;;;;;;;7.13;4.58;;;;;;;13.75;70.52;99467.48;513331;1089;116183;-54
2021/07/20 03:00:08;;;;;;;6.60;4.70;;;;;;;13.75;70.84;99472.76;513957;1090;116756;-57
2021/07/20 03:10:16;;;;;;;5.87;3.70;;;;;;;14.08;71.04;99469.23;513883;1088;115783;-55
2021/07/20 03:20:25;;;;;;;11.53;5.90;;;;;;;15.30;70.48;99478.63;514490;1088;116108;-57
2021/07/20 03:30:33;;;;;;;7.10;5.20;;;;;;;15.43;68.71;99472.28;512734;1090;116851;-57
2021/07/20 03:40:40;;;;;;;10.55;5.20;;;;;;;15.48;68.59;99472.70;513543;1090;116549;-57
2021/07/20 03:50:50;;;;;;;5.87;5.23;;;;;;;15.42;68.38;99476.72;513156;1089;116665;-56
2021/07/20 04:01:00;;;;;;;13.17;5.90;;;;;;;15.71;68.18;99470.71;514106;1088;116567;-57
2021/07/20 04:11:08;;;;;;;11.70;5.83;;;;;;;16.56;68.36;99467.64;513909;1089;116688;-57
2021/07/20 04:21:14;;;;;;;9.87;6.33;;;;;;;24.33;61.06;99471.39;513446;1090;116769;-56
2021/07/20 04:31:25;;;;;;;11.37;4.70;;;;;;;29.52;50.64;99453.99;514605;1090;116991;-57
2021/07/20 04:41:33;;;;;;;8.37;4.90;;;;;;;31.91;44.70;99460.45;513941;1089;116035;-57
2021/07/20 04:51:40;;;;;;;6.00;4.00;;;;;;;31.10;41.42;99459.32;513776;1089;115982;-58
2021/07/20 05:01:48;;;;;;;8.77;4.07;;;;;;;29.72;42.01;99470.80;514779;1089;115968;-58
2021/07/20 05:11:55;;;;;;;9.23;4.87;;;;;;;33.72;37.93;99474.07;513898;1089;116034;-58
2021/07/20 05:22:04;;;;;;;6.60;5.30;;;;;;;36.54;33.26;99470.75;514588;1089;116334;-58
2021/07/20 05:32:17;;;;;;;6.70;4.47;;;;;;;36.84;32.29;99474.55;514423;1088;116482;-57
2021/07/20 05:42:23;;;;;;;9.80;5.88;;;;;;;39.03;29.78;99493.28;514581;1090;115773;-57
2021/07/20 05:52:30;;;;;;;7.93;4.70;;;;;;;42.45;26.74;99478.94;513990;1090;115765;-57
2021/07/20 06:02:39;;;;;;;7.87;4.70;;;;;;;43.83;23.71;99487.56;515764;1088;117187;-57
2021/07/20 06:12:47;;;;;;;8.00;4.60;;;;;;;45.08;23.20;99484.20;513504;1090;115910;-57
2021/07/20 06:22:55;;;;;;;8.25;4.30;;;;;;;47.46;20.18;99481.85;514738;1089;115384;-58
2021/07/20 06:33:02;;;;;;;6.53;3.67;;;;;;;48.35;19.12;99488.34;516017;1089;115988;-57
2021/07/20 06:43:11;;;;;;;11.33;4.53;;;;;;;46.77;20.07;99482.46;514335;1089;118036;-62
2021/07/20 06:53:18;;;;;;;18.10;5.90;;;;;;;49.40;17.40;99490.09;531575;1089;116216;-59
2021/07/20 07:03:30;;;;;;;5.53;4.50;;;;;;;49.43;16.15;99489.38;517911;1088;117254;-60
2021/07/20 07:13:38;;;;;;;4.78;3.85;;;;;;;48.22;16.64;99487.63;519498;1090;116779;-60
2021/07/20 07:23:48;;;;;;;4.80;4.50;;;;;;;49.42;16.17;99482.19;527912;1090;115974;-60
2021/07/20 07:33:55;;;;;;;5.10;4.80;;;;;;;49.97;15.17;99489.70;505088;1089;10001883;-59
2021/07/20 07:44:01;;;;;;;5.03;4.70;;;;;;;49.91;15.07;99491.19;521232;1089;168735;-60
2021/07/20 07:54:09;;;;;;;3.93;3.53;;;;;;;46.84;14.81;99486.27;516694;1089;115814;-61
2021/07/20 08:04:18;;;;;;;5.38;2.53;;;;;;;39.62;18.18;99487.64;514351;1088;115799;-61
2021/07/20 08:14:25;;;;;;;6.58;2.10;;;;;;;34.67;22.63;99491.08;524268;1089;116448;-61
2021/07/20 08:24:34;;;;;;;3.70;2.83;;;;;;;31.41;26.05;99493.41;513546;1089;116886;-60
2021/07/20 08:34:46;;;;;;;5.00;2.57;;;;;;;29.99;27.74;99494.80;527751;1088;116517;-62
2021/07/20 08:45:18;;;;;;;3.37;2.30;;;;;;;29.48;29.01;99499.59;530984;1088;116599;-59
2021/07/20 08:55:28;;;;;;;4.20;2.70;;;;;;;29.45;30.77;99491.94;531850;1089;117446;-61
2021/07/20 09:05:44;;;;;;;2.37;2.17;;;;;;;28.95;30.48;99486.38;527730;1088;117188;-56
2021/07/20 09:15:55;;;;;;;2.90;2.50;;;;;;;29.19;30.34;99478.45;525884;1089;116914;-58
2021/07/20 09:26:07;;;;;;;5.10;2.50;;;;;;;28.50;31.38;99473.02;531311;1088;116529;-59
2021/07/20 09:36:21;;;;;;;10.80;2.45;;;;;;;28.70;32.13;99467.47;530471;1089;116668;-59
2021/07/20 09:46:39;;;;;;;2.97;2.27;;;;;;;28.26;31.72;99467.38;531303;1089;117645;-58
2021/07/20 09:57:00;;;;;;;2.70;2.30;;;;;;;27.75;30.60;99461.84;530574;1089;116577;-57
2021/07/20 10:07:19;;;;;;;3.47;2.30;;;;;;;26.87;32.91;99453.14;531353;1090;116501;-58
2021/07/20 10:17:31;;;;;;;2.87;2.37;;;;;;;26.47;32.99;99458.52;531261;1090;117793;-58
2021/07/20 10:27:46;;;;;;;4.57;2.10;;;;;;;26.61;32.59;99429.71;530620;1088;116414;-58
2021/07/20 10:37:55;;;;;;;4.23;2.43;;;;;;;26.90;32.39;99433.05;531269;1090;116239;-59
2021/07/20 10:48:07;;;;;;;6.50;2.53;;;;;;;26.06;35.51;99433.39;530529;1089;116980;-58
2021/07/20 10:58:29;;;;;;;2.00;1.70;;;;;;;25.07;38.15;99439.78;531262;1089;116690;-58
2021/07/20 11:08:41;;;;;;;6.43;2.13;;;;;;;25.28;37.99;99427.30;531229;1089;116029;-58
2021/07/20 11:18:49;;;;;;;2.77;2.47;;;;;;;25.36;37.99;99432.52;531262;1088;117423;-58
2021/07/20 11:28:57;;;;;;;4.30;2.03;;;;;;;25.69;37.43;99436.39;531299;1090;117009;-59
2021/07/20 11:39:05;;;;;;;5.63;3.58;;;;;;;25.70;37.69;99430.83;530498;1089;116026;-59
2021/07/20 11:49:21;;;;;;;6.00;3.57;;;;;;;25.73;37.02;99446.55;531704;1088;117573;-59
2021/07/20 12:00:00;;;;;;;3.73;1.90;;;;;;;25.47;36.83;99428.41;531705;1089;117637;-63
2021/07/20 12:10:26;;;;;;;3.00;1.83;;;;;;;24.79;37.37;99432.59;531712;1089;117006;-59
2021/07/20 12:20:33;;;;;;;4.10;1.90;;;;;;;24.66;37.44;99427.09;531355;1089;117100;-60
2021/07/20 12:30:41;;;;;;;4.08;2.53;;;;;;;24.72;37.01;99420.93;530383;1089;116461;-60
2021/07/20 12:40:47;;;;;;;2.88;2.43;;;;;;;24.90;36.65;99417.78;531113;1089;117265;-60
2021/07/20 12:50:56;;;;;;;5.10;2.00;;;;;;;25.03;36.00;99408.98;516337;1090;116580;-61
2021/07/20 13:01:03;;;;;;;4.43;2.10;;;;;;;25.24;35.83;99407.24;529110;1089;116574;-62
2021/07/20 13:11:12;;;;;;;2.98;2.20;;;;;;;25.37;35.33;99411.83;525840;1089;115791;-59
2021/07/20 13:21:20;;;;;;;2.67;1.70;;;;;;;24.89;35.85;99413.44;514375;1089;116247;-59
2021/07/20 13:31:33;;;;;;;7.60;2.13;;;;;;;24.46;37.04;99417.02;529181;1089;117409;-59
2021/07/20 13:41:40;;;;;;;7.33;3.37;;;;;;;24.14;37.72;99408.48;531248;1089;116646;-59
2021/07/20 13:51:47;;;;;;;4.50;2.30;;;;;;;24.26;38.21;99408.81;525315;1089;116295;-62
2021/07/20 14:01:55;;;;;;;4.15;2.08;;;;;;;24.21;37.92;99399.47;526462;1089;116870;-61
2021/07/20 14:12:05;;;;;;;3.30;1.90;;;;;;;24.48;36.98;99401.55;531147;1088;116191;-62
2021/07/20 14:22:15;;;;;;;6.30;2.40;;;;;;;24.88;36.31;99401.88;527369;1088;117301;-58
2021/07/20 14:32:25;;;;;;;4.03;2.50;;;;;;;24.95;36.63;99411.82;525138;1088;116464;-58
2021/07/20 14:42:35;;;;;;;3.17;2.80;;;;;;;24.62;37.40;99407.86;519496;1089;115824;-60
2021/07/20 14:52:51;;;;;;;3.95;2.08;;;;;;;24.34;38.12;99406.81;515684;1090;116606;-60
2021/07/20 15:03:00;;;;;;;4.17;1.87;;;;;;;24.09;37.31;99395.64;516259;1089;116679;-57
2021/07/20 15:13:13;;;;;;;3.30;2.23;;;;;;;23.94;37.20;99398.34;514057;1089;117152;-59
2021/07/20 15:23:20;;;;;;;4.70;2.87;;;;;;;23.68;37.86;99396.24;519886;1089;116196;-62
2021/07/20 15:33:27;;;;;;;8.58;2.30;;;;;;;23.90;38.12;99400.61;521443;1089;115880;-59
2021/07/20 15:43:36;;;;;;;2.60;2.40;;;;;;;23.83;37.64;99404.21;514059;1089;116605;-60
2021/07/20 15:53:43;;;;;;;5.35;2.28;;;;;;;23.41;38.90;99402.11;514870;1089;116315;-56
2021/07/20 16:03:51;;;;;;;4.05;2.45;;;;;;;23.67;38.66;99400.75;520304;1090;115679;-56
2021/07/20 16:13:56;;;;;;;;;;;;;;;23.76;38.58;99402.31;530373;1089;116120;-58
2021/07/20 16:24:08;;;;;;;4.35;1.53;;;;;;;23.58;38.57;99409.92;521077;1088;102967;-57
2021/07/20 16:34:16;;;;;;;4.67;2.43;;;;;;;23.46;39.42;99404.23;513859;1090;116919;-57
2021/07/20 16:44:22;;;;;;;5.03;1.90;;;;;;;23.36;39.79;99407.18;513152;1090;115393;-58
2021/07/20 16:54:29;;;;;;;4.93;1.97;;;;;;;23.32;40.34;99404.07;528249;1089;116426;-59
2021/07/20 17:04:35;;;;;;;1.90;1.70;;;;;;;23.11;40.66;99417.34;530629;1089;116898;-59
2021/07/20 17:14:43;;;;;;;3.47;1.87;;;;;;;23.06;41.04;99426.73;521323;1089;115944;-59
2021/07/20 17:24:55;;;;;;;5.13;2.37;;;;;;;22.75;41.56;99432.25;520482;1088;115700;-58
2021/07/20 17:35:06;;;;;;;6.30;2.95;;;;;;;22.30;42.80;99434.79;516777;1089;116439;-59
2021/07/20 17:45:14;;;;;;;4.15;1.90;;;;;;;22.09;43.18;99446.96;518739;1089;116040;-59
2021/07/20 17:55:20;;;;;;;;;;;;;;;21.76;44.02;99449.83;515690;1090;117097;-60
2021/07/20 18:05:27;;;;;;;6.33;2.53;;;;;;;21.50;44.40;99461.60;519586;1090;103086;-59
2021/07/20 18:15:33;;;;;;;10.83;4.80;;;;;;;21.10;44.89;99462.38;519701;1089;116637;-57
2021/07/20 18:25:40;;;;;;;7.53;3.07;;;;;;;20.82;45.46;99480.59;530137;1089;116559;-59
2021/07/20 18:35:47;;;;;;;6.37;3.00;;;;;;;20.55;46.00;99494.09;520846;1089;116019;-58
2021/07/20 18:45:53;;;;;;;7.10;3.53;;;;;;;20.28;46.96;99508.55;513996;1088;115683;-63
2021/07/20 18:56:15;;;;;;;7.17;3.17;;;;;;;20.05;47.78;99510.98;516650;1089;116622;-59
2021/07/20 19:06:23;;;;;;;5.57;3.43;;;;;;;19.82;49.27;99530.19;531074;1090;117361;-59
2021/07/20 19:16:30;;;;;;;6.35;3.20;;;;;;;19.58;49.96;99535.26;505491;1090;20001710;-60
2021/07/20 19:26:37;;;;;;;6.73;3.98;;;;;;;19.34;51.04;99551.91;515683;1089;116935;-59
2021/07/20 19:36:44;;;;;;;6.50;3.03;;;;;;;19.07;52.38;99558.20;531134;1088;117084;-58
2021/07/20 19:46:50;;;;;;;11.90;4.87;;;;;;;18.88;53.09;99554.72;530458;1089;117271;-59
2021/07/20 19:56:57;;;;;;;8.07;3.83;;;;;;;18.77;53.78;99561.09;522108;1088;117081;-59
2021/07/20 20:07:03;;;;;;;9.93;3.47;;;;;;;18.58;54.29;99562.93;523592;1090;115687;-59
2021/07/20 20:17:10;;;;;;;8.73;3.80;;;;;;;18.51;55.10;99569.83;526353;1088;116365;-58
2021/07/20 20:27:17;;;;;;;12.90;4.87;;;;;;;18.42;55.34;99578.69;522173;1089;116177;-58
2021/07/20 20:37:24;;;;;;;13.70;3.67;;;;;;;18.31;56.27;99577.09;530423;1089;116460;-59
2021/07/20 20:47:30;;;;;;;5.90;2.70;;;;;;;18.17;56.44;99586.39;521829;1089;116605;-59
2021/07/20 20:57:37;;;;;;;4.27;2.93;;;;;;;18.14;56.58;99589.36;514748;1088;116838;-58
2021/07/20 21:07:43;;;;;;;5.13;3.53;;;;;;;17.89;56.72;99597.81;525862;1089;117392;-60
2021/07/20 21:17:50;;;;;;;4.60;3.37;;;;;;;17.67;56.80;99606.13;530539;1089;115692;-59
2021/07/20 21:27:56;;;;;;;5.10;3.30;;;;;;;17.44;56.81;99611.77;525243;1090;116161;-59
2021/07/20 21:38:04;;;;;;;8.10;4.10;;;;;;;17.22;56.67;99622.56;520838;1089;117438;-59
2021/07/20 21:48:11;;;;;;;5.25;3.58;;;;;;;17.12;55.57;99615.56;520842;1089;116823;-56
2021/07/20 21:58:17;;;;;;;5.17;3.73;;;;;;;16.93;55.34;99623.36;513211;1088;116440;-58
2021/07/20 22:08:25;;;;;;;4.07;3.50;;;;;;;16.83;55.79;99614.55;520527;1090;116036;-59
2021/07/20 22:18:31;;;;;;;4.90;3.75;;;;;;;16.72;55.26;99625.28;514694;1089;115625;-60
2021/07/20 22:28:40;;;;;;;4.68;3.65;;;;;;;16.60;55.56;99629.89;514658;1089;117462;-59
2021/07/20 22:38:48;;;;;;;5.93;3.13;;;;;;;16.46;55.76;99631.10;514345;1089;116210;-58
2021/07/20 22:48:55;;;;;;;5.45;3.33;;;;;;;16.37;55.65;99633.58;516347;1088;116372;-59
2021/07/20 22:59:02;;;;;;;4.57;3.40;;;;;;;16.21;55.73;99641.20;525153;1089;116370;-57
2021/07/20 23:09:09;;;;;;;4.03;3.60;;;;;;;16.06;56.18;99640.72;531258;1090;116439;-58
2021/07/20 23:19:16;;;;;;;8.47;4.20;;;;;;;15.92;56.41;99629.52;530533;1090;117401;-57
2021/07/20 23:29:23;;;;;;;5.47;3.07;;;;;;;15.80;56.42;99638.48;531076;1088;116659;-58
2021/07/20 23:39:30;;;;;;;4.30;3.37;;;;;;;15.67;56.84;99644.83;531258;1088;115991;-59
2021/07/20 23:49:37;;;;;;;4.30;2.80;;;;;;;15.46;57.16;99642.16;530587;1090;117568;-58
2021/07/20 23:59:43;;;;;;;3.93;3.23;;;;;;;15.31;58.01;99641.66;531197;1090;116634;-58
